Time;durP1;ratioP1;P1;durP2;ratioP2;P2;SDS_P1;SDS_P2;PMS_P1;PMS_P2;Temp;Humidity;BMP_temperature;BMP_pressure;BME280_temperature;BME280_humidity;BME280_pressure;Samples;Min_cycle;Max_cycle;Signal;HPM_P1;HPM_P2
2024/01/09 00:00:32;;;;;;;5.95;2.05;;;-2.10;99.90;;;;;;5118347;28;20445;-73
2024/01/09 00:02:59;;;;;;;4.70;1.65;;;-2.10;99.90;;;;;;5118643;28;20435;-72
2024/01/09 00:05:28;;;;;;;5.38;2.30;;;-2.20;99.90;;;;;;5118706;28;20837;-74
2024/01/09 00:07:55;;;;;;;2.90;1.70;;;-2.00;1.00;;;;;;5118687;27;20432;-72
2024/01/09 00:10:22;;;;;;;5.45;2.13;;;-2.00;99.90;;;;;;5106529;28;20422;-72
2024/01/09 00:12:52;;;;;;;3.43;2.27;;;-2.00;99.90;;;;;;5110905;28;20521;-72
2024/01/09 00:15:20;;;;;;;3.53;1.63;;;-2.10;99.90;;;;;;5099178;28;20954;-72
2024/01/09 00:17:47;;;;;;;4.20;1.70;;;-2.20;99.90;;;;;;5105644;28;20846;-72
2024/01/09 00:20:16;;;;;;;3.53;1.80;;;-2.20;99.90;;;;;;5103371;28;20426;-72
2024/01/09 00:22:45;;;;;;;6.68;2.30;;;-2.40;99.90;;;;;;5118705;28;20873;-72
2024/01/09 00:25:12;;;;;;;5.13;2.17;;;-2.60;99.90;;;;;;5124311;28;20440;-72
2024/01/09 00:27:39;;;;;;;6.00;2.25;;;-2.70;99.90;;;;;;5120606;27;20444;-73
2024/01/09 00:30:07;;;;;;;4.80;2.00;;;-2.90;99.90;;;;;;5098073;28;20819;-74
2024/01/09 00:32:35;;;;;;;4.18;2.20;;;-3.00;99.90;;;;;;5100710;28;20437;-73
2024/01/09 00:35:02;;;;;;;5.72;2.10;;;-2.90;1.00;;;;;;5111407;28;20832;-73
2024/01/09 00:37:29;;;;;;;5.40;2.17;;;-2.70;1.00;;;;;;5115983;28;20423;-73
2024/01/09 00:39:58;;;;;;;4.10;1.55;;;-2.60;1.00;;;;;;5116511;28;20903;-72
2024/01/09 00:42:25;;;;;;;6.15;2.28;;;-2.60;99.90;;;;;;5116569;28;20419;-72
2024/01/09 00:44:52;;;;;;;6.20;1.80;;;-2.70;99.90;;;;;;5115893;28;20424;-72
2024/01/09 00:47:21;;;;;;;4.63;1.90;;;-2.50;99.90;;;;;;5116174;28;20617;-72
2024/01/09 00:49:48;;;;;;;5.30;1.65;;;-2.50;99.90;;;;;;5115777;28;20435;-72
2024/01/09 00:52:15;;;;;;;4.70;1.67;;;-2.60;99.90;;;;;;5116151;28;20603;-73
2024/01/09 00:54:43;;;;;;;5.40;1.70;;;-2.50;99.90;;;;;;5116978;28;20420;-72
2024/01/09 00:57:11;;;;;;;4.40;1.70;;;-2.50;99.90;;;;;;5116899;28;20523;-72
2024/01/09 00:59:38;;;;;;;5.88;2.30;;;-2.40;99.90;;;;;;5115194;28;21144;-73
2024/01/09 01:02:05;;;;;;;4.75;1.60;;;-2.60;99.90;;;;;;5115192;28;20812;-74
2024/01/09 01:04:32;;;;;;;5.22;2.03;;;-2.40;99.90;;;;;;5107838;28;20556;-73
2024/01/09 01:06:59;;;;;;;4.97;2.10;;;-2.30;99.90;;;;;;5109977;28;21027;-72
2024/01/09 01:09:27;;;;;;;4.55;2.00;;;-2.20;99.90;;;;;;5113282;28;20555;-75
2024/01/09 01:11:54;;;;;;;5.20;1.80;;;-2.30;99.90;;;;;;5094849;28;20434;-73
2024/01/09 01:14:23;;;;;;;6.03;2.50;;;-2.30;99.90;;;;;;5095144;28;20433;-72
2024/01/09 01:16:52;;;;;;;5.88;1.90;;;-2.50;99.90;;;;;;5096350;28;20421;-72
2024/01/09 01:19:19;;;;;;;5.07;1.70;;;-2.80;99.90;;;;;;5095370;28;20414;-72
2024/01/09 01:21:46;;;;;;;8.57;2.67;;;-2.90;99.90;;;;;;5097575;28;20429;-73
2024/01/09 01:24:13;;;;;;;5.78;2.10;;;-2.70;99.90;;;;;;5096024;28;20783;-73
2024/01/09 01:26:41;;;;;;;5.20;1.80;;;-2.70;99.90;;;;;;5095973;28;20426;-73
2024/01/09 01:29:08;;;;;;;5.60;2.10;;;-2.60;99.90;;;;;;5111020;28;20462;-72
2024/01/09 01:31:36;;;;;;;5.13;1.70;;;-2.70;99.90;;;;;;5117778;28;20416;-73
2024/01/09 01:34:03;;;;;;;6.10;1.95;;;-2.50;99.90;;;;;;5116195;28;20451;-72
2024/01/09 01:36:31;;;;;;;5.93;1.88;;;-2.40;99.90;;;;;;5116912;28;20450;-72
2024/01/09 01:38:58;;;;;;;5.70;1.90;;;-2.30;99.90;;;;;;5113773;28;20436;-73
2024/01/09 01:41:25;;;;;;;6.43;2.15;;;-2.40;99.90;;;;;;5110126;28;20866;-75
2024/01/09 01:43:52;;;;;;;3.70;1.70;;;-2.30;99.90;;;;;;5102379;28;20416;-73
2024/01/09 01:46:20;;;;;;;4.85;2.10;;;-2.50;99.90;;;;;;5110233;28;20808;-72
2024/01/09 01:48:50;;;;;;;5.13;2.30;;;-2.50;99.90;;;;;;5113470;27;20550;-72
2024/01/09 01:51:17;;;;;;;4.63;1.90;;;-2.60;99.90;;;;;;5136007;27;20426;-72
2024/01/09 01:53:44;;;;;;;4.03;1.70;;;-2.50;99.90;;;;;;5136735;27;20479;-72
2024/01/09 01:56:12;;;;;;;4.50;1.70;;;-2.40;99.90;;;;;;5119514;27;20419;-72
2024/01/09 01:58:40;;;;;;;6.38;2.13;;;-2.60;78.00;;;;;;5106274;28;20433;-73
2024/01/09 02:01:07;;;;;;;5.28;1.70;;;-2.90;99.90;;;;;;5100459;28;20432;-73
2024/01/09 02:03:34;;;;;;;7.38;2.40;;;-3.10;99.90;;;;;;5115347;28;20425;-72
2024/01/09 02:06:03;;;;;;;5.38;2.30;;;-3.20;99.90;;;;;;5114794;28;20813;-73
2024/01/09 02:08:31;;;;;;;4.97;1.55;;;-3.20;99.90;;;;;;5112976;28;20431;-72
2024/01/09 02:10:58;;;;;;;6.80;2.43;;;-3.10;99.90;;;;;;5104636;28;20428;-73
2024/01/09 02:13:25;;;;;;;5.63;2.50;;;-2.90;99.90;;;;;;5114394;28;20797;-72
2024/01/09 02:15:53;;;;;;;3.90;1.70;;;-2.70;99.90;;;;;;5104228;28;20855;-72
2024/01/09 02:18:20;;;;;;;6.38;2.20;;;-2.60;99.90;;;;;;5115387;28;20427;-73
2024/01/09 02:20:47;;;;;;;5.25;2.20;;;-2.60;99.90;;;;;;5113919;28;20435;-73
2024/01/09 02:23:15;;;;;;;4.13;1.80;;;-2.70;99.90;;;;;;5127262;27;20541;-73
2024/01/09 02:25:42;;;;;;;6.03;2.22;;;-2.70;99.90;;;;;;5110315;27;20727;-74
2024/01/09 02:28:15;;;;;;;6.00;2.28;;;-2.80;99.90;;;;;;5101564;28;20427;-73
2024/01/09 02:30:44;;;;;;;6.25;2.00;;;-2.70;99.90;;;;;;5115847;28;20431;-72
2024/01/09 02:33:12;;;;;;;4.97;2.20;;;-3.00;99.90;;;;;;5115052;28;20420;-73
2024/01/09 02:35:39;;;;;;;6.63;2.60;;;-3.10;99.90;;;;;;5115198;28;20428;-73
2024/01/09 02:38:06;;;;;;;4.50;2.07;;;-3.10;99.90;;;;;;5115037;28;20512;-73
2024/01/09 02:40:33;;;;;;;5.70;2.00;;;-3.10;99.90;;;;;;5111441;28;20439;-72
2024/01/09 02:43:00;;;;;;;5.00;2.45;;;-3.10;99.90;;;;;;5110623;28;20541;-73
2024/01/09 02:45:30;;;;;;;4.60;2.00;;;-3.20;99.90;;;;;;5110877;28;21032;-74
2024/01/09 02:47:58;;;;;;;4.95;1.70;;;-3.20;99.90;;;;;;5115574;28;20790;-73
2024/01/09 02:50:25;;;;;;;4.82;2.10;;;-3.20;99.90;;;;;;5113768;28;20435;-73
2024/01/09 02:52:52;;;;;;;4.68;1.90;;;-3.20;99.90;;;;;;5111895;28;20424;-72
2024/01/09 02:55:19;;;;;;;7.20;1.87;;;-3.20;99.90;;;;;;5107897;28;20420;-73
2024/01/09 02:57:47;;;;;;;5.60;1.80;;;-3.20;99.90;;;;;;5127285;27;20446;-72
2024/01/09 03:00:14;;;;;;;6.45;1.92;;;-3.20;99.90;;;;;;5094548;28;20418;-72
2024/01/09 03:02:41;;;;;;;4.18;2.08;;;-3.10;99.90;;;;;;5095500;28;20721;-72
2024/01/09 03:05:10;;;;;;;4.00;1.90;;;-3.00;99.90;;;;;;5109791;28;20457;-73
2024/01/09 03:07:37;;;;;;;6.75;2.47;;;-3.00;99.90;;;;;;5114758;28;20420;-73
2024/01/09 03:10:04;;;;;;;7.07;2.30;;;-3.10;99.90;;;;;;5111500;28;20440;-73
2024/01/09 03:12:32;;;;;;;4.10;2.10;;;-3.10;99.90;;;;;;5113005;28;20516;-73
2024/01/09 03:14:59;;;;;;;4.38;1.70;;;-2.90;99.90;;;;;;5113066;28;20684;-73
2024/01/09 03:17:27;;;;;;;4.30;1.80;;;-2.70;99.90;;;;;;5115754;28;20599;-73
2024/01/09 03:19:54;;;;;;;6.03;1.55;;;-2.70;99.90;;;;;;5115415;28;20474;-72
2024/01/09 03:22:22;;;;;;;5.03;2.03;;;-2.70;99.90;;;;;;5114706;28;20464;-73
2024/01/09 03:24:50;;;;;;;5.85;1.70;;;-2.90;24.50;;;;;;5112286;28;20428;-73
2024/01/09 03:27:17;;;;;;;4.10;2.35;;;-3.20;37.40;;;;;;5107127;28;20493;-73
2024/01/09 03:29:44;;;;;;;5.77;2.30;;;-3.00;99.90;;;;;;5112808;28;20446;-74
2024/01/09 03:32:11;;;;;;;6.38;2.50;;;-2.80;99.90;;;;;;5114658;28;20420;-72
2024/01/09 03:34:38;;;;;;;3.08;1.60;;;-2.80;99.90;;;;;;5113959;28;20420;-74
2024/01/09 03:37:07;;;;;;;4.63;2.30;;;-2.80;42.20;;;;;;5115291;28;20521;-73
2024/01/09 03:39:35;;;;;;;5.60;1.90;;;-3.00;32.40;;;;;;5110503;28;20469;-74
2024/01/09 03:42:02;;;;;;;6.57;1.90;;;-3.00;99.90;;;;;;5113759;28;20428;-72
2024/01/09 03:44:29;;;;;;;5.50;1.65;;;-3.00;35.20;;;;;;5112509;28;20710;-73
2024/01/09 03:46:57;;;;;;;6.88;2.50;;;-3.10;54.40;;;;;;5114816;28;20420;-72
2024/01/09 03:49:24;;;;;;;3.70;1.60;;;-3.00;79.10;;;;;;5111420;28;20439;-74
2024/01/09 03:51:51;;;;;;;4.70;1.90;;;-3.00;99.90;;;;;;5097958;28;20433;-74
2024/01/09 03:54:18;;;;;;;6.22;1.98;;;-2.80;99.90;;;;;;5094161;28;20426;-73
2024/01/09 03:56:47;;;;;;;5.37;2.00;;;-2.70;37.80;;;;;;5093469;28;20414;-73
2024/01/09 03:59:14;;;;;;;5.10;1.73;;;-2.90;7.90;;;;;;5109206;28;20451;-73
2024/01/09 04:01:41;;;;;;;6.00;1.70;;;-2.90;61.90;;;;;;5114347;28;20416;-73
2024/01/09 04:04:08;;;;;;;3.53;1.30;;;-2.80;41.10;;;;;;5104719;28;20424;-72
2024/01/09 04:06:35;;;;;;;6.70;1.88;;;-2.80;1.00;;;;;;5115345;28;20481;-73
2024/01/09 04:09:02;;;;;;;5.68;1.85;;;-3.20;19.30;;;;;;5109161;28;20441;-73
2024/01/09 04:11:29;;;;;;;4.30;2.10;;;-3.10;83.40;;;;;;5103066;28;20415;-73
2024/01/09 04:13:57;;;;;;;5.07;2.00;;;-3.20;25.50;;;;;;5118584;28;20424;-72
2024/01/09 04:16:24;;;;;;;6.65;1.90;;;-3.40;7.70;;;;;;5117566;28;20428;-73
2024/01/09 04:18:51;;;;;;;3.85;1.50;;;-3.50;91.00;;;;;;5118086;28;20420;-72
2024/01/09 04:21:18;;;;;;;5.32;2.00;;;-3.30;99.90;;;;;;5117594;28;20439;-73
2024/01/09 04:23:45;;;;;;;6.10;2.00;;;-3.20;79.00;;;;;;5118307;28;20701;-72
2024/01/09 04:26:12;;;;;;;5.15;2.00;;;-3.20;18.80;;;;;;5116872;28;20420;-72
2024/01/09 04:28:39;;;;;;;4.75;1.98;;;-3.20;68.10;;;;;;5108558;28;20444;-74
2024/01/09 04:31:08;;;;;;;6.07;1.98;;;-3.20;63.50;;;;;;5116211;28;20436;-72
2024/01/09 04:33:35;;;;;;;4.28;1.70;;;-3.20;48.90;;;;;;5107933;28;20449;-73
2024/01/09 04:36:02;;;;;;;7.45;2.20;;;-3.10;99.90;;;;;;5112138;28;20440;-72
2024/01/09 04:38:29;;;;;;;3.90;1.70;;;-2.60;99.90;;;;;;5116386;28;20442;-72
2024/01/09 04:40:56;;;;;;;5.75;1.90;;;-1.80;99.90;;;;;;5116459;28;20852;-72
2024/01/09 04:43:23;;;;;;;3.97;1.60;;;-1.90;99.90;;;;;;5116531;28;20837;-73
2024/01/09 04:45:50;;;;;;;6.80;1.80;;;-1.80;1.00;;;;;;5115916;28;20817;-71
2024/01/09 04:48:19;;;;;;;7.53;1.77;;;-2.10;41.20;;;;;;5105671;28;20429;-72
2024/01/09 04:50:46;;;;;;;3.45;1.65;;;-2.60;4.00;;;;;;5095316;28;20466;-73
2024/01/09 04:53:13;;;;;;;3.97;1.73;;;-2.70;87.80;;;;;;5095744;28;20441;-73
2024/01/09 04:55:40;;;;;;;4.88;2.00;;;-2.80;39.60;;;;;;5106144;27;20432;-72
2024/01/09 04:58:07;;;;;;;4.18;1.67;;;-2.90;44.60;;;;;;5110735;28;20430;-72
2024/01/09 05:00:34;;;;;;;5.20;1.60;;;-3.10;81.80;;;;;;5106919;28;20424;-71
2024/01/09 05:03:01;;;;;;;3.10;1.30;;;-3.20;75.50;;;;;;5117067;28;20509;-72
2024/01/09 05:05:30;;;;;;;5.70;2.10;;;-3.30;94.50;;;;;;5116640;28;20420;-72
2024/01/09 05:07:57;;;;;;;5.68;1.60;;;-3.40;69.80;;;;;;5116790;28;20424;-73
2024/01/09 05:10:24;;;;;;;6.13;1.80;;;-3.30;99.90;;;;;;5116844;28;20434;-71
2024/01/09 05:12:51;;;;;;;4.75;2.00;;;-3.20;99.90;;;;;;5125477;27;20426;-71
2024/01/09 05:15:18;;;;;;;4.25;1.50;;;-3.20;99.90;;;;;;5123472;27;20712;-70
2024/01/09 05:17:45;;;;;;;5.43;1.80;;;-3.40;21.40;;;;;;5114696;28;20439;-71
2024/01/09 05:20:12;;;;;;;4.28;1.55;;;-3.60;78.10;;;;;;5105419;28;20433;-71
2024/01/09 05:22:41;;;;;;;5.10;2.00;;;-3.40;93.30;;;;;;5109249;28;20475;-71
2024/01/09 05:25:08;;;;;;;4.03;1.50;;;-3.50;55.60;;;;;;5116354;28;20499;-72
2024/01/09 05:27:35;;;;;;;3.53;1.70;;;-3.60;49.30;;;;;;5115412;28;20520;-71
2024/01/09 05:30:03;;;;;;;5.53;1.80;;;-3.70;99.90;;;;;;5115208;28;20436;-71
2024/01/09 05:32:30;;;;;;;5.70;1.90;;;-3.50;99.90;;;;;;5116377;28;20435;-71
2024/01/09 05:34:57;;;;;;;4.30;1.70;;;-3.30;99.90;;;;;;5116638;28;20416;-70
2024/01/09 05:37:24;;;;;;;3.13;1.15;;;-3.40;59.10;;;;;;5097066;28;20536;-72
2024/01/09 05:39:55;;;;;;;5.35;1.77;;;-3.30;99.90;;;;;;5114006;28;20710;-71
2024/01/09 05:42:22;;;;;;;4.93;1.50;;;-3.20;34.10;;;;;;5105637;28;20437;-71
2024/01/09 05:44:49;;;;;;;4.45;1.80;;;-3.10;90.10;;;;;;5106351;28;20436;-71
2024/01/09 05:47:16;;;;;;;5.97;1.75;;;-3.10;44.70;;;;;;5119462;27;20730;-71
2024/01/09 05:49:43;;;;;;;5.73;1.90;;;-3.20;64.70;;;;;;5113401;28;20437;-71
2024/01/09 05:52:10;;;;;;;3.22;1.40;;;-3.20;23.70;;;;;;5115400;28;20522;-71
2024/01/09 05:54:37;;;;;;;3.22;1.30;;;-3.30;28.10;;;;;;5102111;28;20429;-72
2024/01/09 05:57:06;;;;;;;4.38;1.48;;;-3.30;38.60;;;;;;5093477;28;20425;-72
2024/01/09 05:59:33;;;;;;;6.43;1.85;;;-3.10;90.50;;;;;;5111264;28;20495;-72
2024/01/09 06:02:00;;;;;;;4.33;1.70;;;-2.60;1.00;;;;;;5114310;28;21125;-71
2024/01/09 06:04:27;;;;;;;5.18;1.60;;;-2.30;99.90;;;;;;5114109;27;20718;-72
2024/01/09 06:06:54;;;;;;;8.70;1.60;;;-2.40;99.90;;;;;;5114748;28;20806;-71
2024/01/09 06:09:21;;;;;;;4.07;1.60;;;-2.20;1.00;;;;;;5115037;28;20431;-72
2024/01/09 06:11:48;;;;;;;4.15;1.50;;;-1.60;1.00;;;;;;5113772;28;20412;-73
2024/01/09 06:14:16;;;;;;;3.00;1.50;;;-1.70;66.50;;;;;;5113473;28;20873;-72
2024/01/09 06:16:43;;;;;;;6.57;1.90;;;-1.30;99.90;;;;;;5114665;28;20424;-72
2024/01/09 06:19:10;;;;;;;3.40;1.45;;;-1.80;1.00;;;;;;5114072;28;20454;-72
2024/01/09 06:21:37;;;;;;;3.77;1.73;;;-2.20;1.00;;;;;;5111979;28;20510;-71
2024/01/09 06:24:05;;;;;;;5.35;1.80;;;-2.50;1.00;;;;;;5111153;28;20520;-71
2024/01/09 06:26:32;;;;;;;4.57;1.52;;;-2.70;1.00;;;;;;5105715;28;20926;-72
2024/01/09 06:28:59;;;;;;;5.45;1.70;;;-2.90;1.00;;;;;;5110807;28;20436;-71
2024/01/09 06:31:27;;;;;;;4.75;1.80;;;-3.10;1.00;;;;;;5109184;28;20436;-71
2024/01/09 06:33:54;;;;;;;5.07;1.80;;;-3.20;1.00;;;;;;5111610;28;20745;-72
2024/01/09 06:36:22;;;;;;;3.13;1.40;;;-3.30;1.00;;;;;;5113299;28;20443;-71
2024/01/09 06:38:49;;;;;;;6.05;1.77;;;-3.20;27.10;;;;;;5131907;27;20406;-72
2024/01/09 06:41:16;;;;;;;3.90;1.50;;;-3.20;16.00;;;;;;5124506;27;20854;-71
2024/01/09 06:43:43;;;;;;;3.88;1.33;;;-3.20;1.00;;;;;;5099374;28;20436;-72
2024/01/09 06:46:11;;;;;;;5.40;1.97;;;-3.30;1.00;;;;;;5111395;28;20440;-71
2024/01/09 06:48:39;;;;;;;3.38;1.48;;;-3.40;1.00;;;;;;5099731;28;20505;-71
2024/01/09 06:51:06;;;;;;;3.10;1.30;;;-3.60;1.00;;;;;;5102851;28;20829;-72
2024/01/09 06:53:33;;;;;;;4.28;1.45;;;-3.70;3.00;;;;;;5112368;28;20646;-72
2024/01/09 06:56:00;;;;;;;4.85;1.50;;;-3.80;1.00;;;;;;5111476;28;20992;-73
2024/01/09 06:58:27;;;;;;;5.32;1.67;;;-3.80;22.70;;;;;;5112452;28;20435;-73
2024/01/09 07:00:54;;;;;;;3.97;1.40;;;-3.50;99.90;;;;;;5113045;28;20950;-74
2024/01/09 07:03:21;;;;;;;4.97;1.60;;;-3.40;64.40;;;;;;5098212;28;21062;-73
2024/01/09 07:05:50;;;;;;;6.43;1.67;;;-3.30;35.60;;;;;;5100202;28;20421;-71
2024/01/09 07:08:17;;;;;;;5.00;1.52;;;-3.20;36.50;;;;;;5101049;28;20443;-73
2024/01/09 07:10:44;;;;;;;3.20;1.50;;;-3.20;1.00;;;;;;5109364;28;20431;-74
2024/01/09 07:13:11;;;;;;;6.03;1.60;;;-3.30;1.00;;;;;;5109945;28;20497;-73
2024/01/09 07:15:38;;;;;;;4.75;1.92;;;-3.50;1.00;;;;;;5109596;28;20817;-73
2024/01/09 07:18:05;;;;;;;5.82;1.98;;;-3.50;26.90;;;;;;5109270;28;20428;-74
2024/01/09 07:20:32;;;;;;;2.72;1.40;;;-3.50;1.00;;;;;;5110965;28;20812;-72
2024/01/09 07:23:02;;;;;;;3.47;1.60;;;-3.50;20.50;;;;;;5105277;28;20555;-72
2024/01/09 07:25:29;;;;;;;4.03;1.40;;;-3.60;27.90;;;;;;5092901;28;20577;-73
2024/01/09 07:27:56;;;;;;;3.80;1.83;;;-3.30;99.90;;;;;;5094455;28;20498;-73
2024/01/09 07:30:23;;;;;;;4.90;1.30;;;-3.30;27.50;;;;;;5106576;28;20540;-72
2024/01/09 07:32:50;;;;;;;5.20;1.70;;;-3.20;24.10;;;;;;5110240;28;20435;-73
2024/01/09 07:35:17;;;;;;;5.80;1.80;;;-3.00;99.90;;;;;;5102767;28;20433;-72
2024/01/09 07:37:44;;;;;;;4.60;1.60;;;-2.20;1.00;;;;;;5089758;28;20870;-72
2024/01/09 07:40:13;;;;;;;6.05;1.40;;;-2.10;99.90;;;;;;5089752;28;20709;-73
2024/01/09 07:42:41;;;;;;;3.95;1.20;;;-2.20;99.90;;;;;;5107375;28;20435;-72
2024/01/09 07:45:11;;;;;;;6.07;1.70;;;-2.20;99.90;;;;;;5115592;27;20854;-73
2024/01/09 07:47:38;;;;;;;4.32;1.60;;;-2.20;99.90;;;;;;5127246;27;20420;-73
2024/01/09 07:50:06;;;;;;;5.13;1.85;;;-2.20;35.20;;;;;;5116023;28;20424;-73
2024/01/09 07:52:33;;;;;;;6.32;1.55;;;-1.80;99.90;;;;;;5116004;28;20416;-72
2024/01/09 07:55:00;;;;;;;8.25;2.20;;;-1.90;1.00;;;;;;5115628;28;20434;-71
2024/01/09 07:57:29;;;;;;;4.13;1.40;;;-1.60;18.60;;;;;;5115292;28;20424;-71
2024/01/09 07:59:56;;;;;;;2.90;1.27;;;-1.30;86.10;;;;;;5115786;28;20416;-71
2024/01/09 08:02:23;;;;;;;6.43;2.22;;;-1.30;1.00;;;;;;5115905;28;20802;-71
2024/01/09 08:04:50;;;;;;;2.30;1.50;;;-1.10;1.00;;;;;;5117737;28;20428;-72
2024/01/09 08:07:17;;;;;;;5.63;2.17;;;-2.00;1.00;;;;;;5116052;28;20438;-72
2024/01/09 08:09:45;;;;;;;5.32;2.15;;;-2.30;1.00;;;;;;5110606;28;20708;-72
2024/01/09 08:12:11;;;;;;;5.68;1.50;;;-2.70;1.00;;;;;;5095475;28;20445;-72
2024/01/09 08:14:40;;;;;;;6.82;1.60;;;-3.00;1.00;;;;;;5095016;28;20490;-72
2024/01/09 08:17:07;;;;;;;4.05;1.33;;;-2.80;1.00;;;;;;5095170;28;20607;-72
2024/01/09 08:19:34;;;;;;;6.22;1.90;;;-2.90;1.00;;;;;;5104411;27;20424;-72
2024/01/09 08:22:01;;;;;;;6.10;1.70;;;-2.90;1.00;;;;;;5108165;28;20432;-72
2024/01/09 08:24:28;;;;;;;6.88;1.80;;;-3.10;1.00;;;;;;5113216;28;20780;-72
2024/01/09 08:26:55;;;;;;;6.65;2.28;;;-3.20;1.00;;;;;;5116012;28;20419;-71
2024/01/09 08:29:26;;;;;;;4.67;2.10;;;-3.20;1.00;;;;;;5110862;28;20477;-72
2024/01/09 08:31:55;;;;;;;5.07;1.70;;;-3.30;1.00;;;;;;5108257;28;20485;-71
2024/01/09 08:34:22;;;;;;;6.38;1.85;;;-3.50;1.00;;;;;;5095193;28;20479;-72
2024/01/09 08:36:49;;;;;;;5.38;1.70;;;-3.50;1.00;;;;;;5105811;28;20830;-72
2024/01/09 08:39:16;;;;;;;4.70;1.80;;;-3.40;1.00;;;;;;5108392;28;20433;-71
2024/01/09 08:41:43;;;;;;;6.95;1.90;;;-3.20;1.00;;;;;;5096612;28;20419;-71
2024/01/09 08:44:10;;;;;;;4.07;1.50;;;-3.20;1.00;;;;;;5113678;28;20416;-72
2024/01/09 08:46:37;;;;;;;5.15;2.00;;;-3.30;1.00;;;;;;5126384;27;20410;-70
2024/01/09 08:49:06;;;;;;;5.83;2.20;;;-3.30;1.00;;;;;;5105268;27;20529;-71
2024/01/09 08:51:33;;;;;;;3.97;1.90;;;-3.20;1.00;;;;;;5111273;28;20435;-71
2024/01/09 08:54:00;;;;;;;4.60;2.08;;;-3.00;1.00;;;;;;5102475;28;20443;-72
2024/01/09 08:56:27;;;;;;;6.43;2.30;;;-2.80;1.00;;;;;;5113067;28;20499;-72
2024/01/09 08:58:54;;;;;;;6.13;1.70;;;-2.60;1.00;;;;;;5108665;28;20428;-73
2024/01/09 09:01:21;;;;;;;4.70;1.80;;;-2.50;1.00;;;;;;5109701;28;20434;-72
2024/01/09 09:03:48;;;;;;;5.65;2.40;;;-2.60;1.00;;;;;;5113673;28;20424;-71
2024/01/09 09:06:17;;;;;;;7.00;2.05;;;-2.50;1.00;;;;;;5107714;28;20492;-72
2024/01/09 09:08:44;;;;;;;5.70;1.80;;;-2.50;1.00;;;;;;5112886;28;20436;-71
2024/01/09 09:11:14;;;;;;;4.55;1.50;;;-2.40;1.00;;;;;;5115249;28;20436;-72
2024/01/09 09:13:42;;;;;;;5.53;1.60;;;-2.50;1.00;;;;;;5114724;27;20526;-72
2024/01/09 09:16:09;;;;;;;6.47;2.17;;;-2.60;1.00;;;;;;5113762;27;20427;-72
2024/01/09 09:18:36;;;;;;;5.77;2.27;;;-2.50;1.00;;;;;;5115030;28;20447;-71
2024/01/09 09:21:04;;;;;;;5.38;1.80;;;-2.50;1.00;;;;;;5115143;28;20843;-72
2024/01/09 09:23:33;;;;;;;5.10;1.92;;;-2.70;1.00;;;;;;5112002;27;20724;-71
2024/01/09 09:26:00;;;;;;;6.53;2.53;;;-2.60;1.00;;;;;;5098684;28;20715;-72
2024/01/09 09:28:27;;;;;;;7.88;2.90;;;-2.60;1.00;;;;;;5103190;28;20965;-72
2024/01/09 09:30:54;;;;;;;6.67;1.77;;;-2.70;1.00;;;;;;5114625;28;21148;-71
2024/01/09 09:33:21;;;;;;;5.10;2.00;;;-2.70;1.00;;;;;;5113822;28;20432;-72
2024/01/09 09:35:48;;;;;;;6.20;2.20;;;-2.70;1.00;;;;;;5113448;28;20416;-71
2024/01/09 09:38:16;;;;;;;6.22;2.70;;;-2.40;1.00;;;;;;5113918;28;20851;-71
2024/01/09 09:40:44;;;;;;;5.47;2.08;;;-2.40;1.00;;;;;;5113666;28;20704;-72
2024/01/09 09:43:18;;;;;;;5.50;2.13;;;-2.50;1.00;;;;;;5114620;28;20432;-71
2024/01/09 09:45:47;;;;;;;5.05;2.42;;;-2.40;1.00;;;;;;5113187;28;20427;-71
2024/01/09 09:48:16;;;;;;;7.50;2.10;;;-2.30;1.00;;;;;;5114152;28;20431;-71
2024/01/09 09:50:44;;;;;;;5.10;2.10;;;-2.20;1.00;;;;;;5114139;28;21196;-73
2024/01/09 09:53:11;;;;;;;8.80;3.10;;;-2.00;1.00;;;;;;5115110;28;20411;-71
2024/01/09 09:55:40;;;;;;;8.13;2.20;;;-2.00;1.00;;;;;;5114292;28;20809;-72
2024/01/09 09:58:08;;;;;;;7.78;3.17;;;-2.10;1.00;;;;;;5114548;28;20432;-72
2024/01/09 10:00:35;;;;;;;11.52;1.90;;;-2.00;1.00;;;;;;5114800;28;20415;-72
2024/01/09 10:03:08;;;;;;;4.20;1.97;;;-1.90;1.00;;;;;;5115278;28;20424;-72
2024/01/09 10:05:39;;;;;;;5.77;2.70;;;-1.80;1.00;;;;;;5115166;28;20885;-72
2024/01/09 10:08:08;;;;;;;4.93;1.85;;;-1.80;1.00;;;;;;5113742;28;20505;-72
2024/01/09 10:10:35;;;;;;;5.22;1.80;;;-1.50;1.00;;;;;;5114801;28;20518;-73
2024/01/09 10:13:03;;;;;;;6.13;2.47;;;-1.50;1.00;;;;;;5115180;28;20808;-72
2024/01/09 10:15:31;;;;;;;5.70;2.50;;;-1.30;1.00;;;;;;5114890;28;20431;-74
2024/01/09 10:18:01;;;;;;;5.70;2.30;;;-1.10;1.00;;;;;;5114586;28;20465;-72
2024/01/09 10:20:30;;;;;;;5.38;2.30;;;-0.50;1.00;;;;;;5113876;28;20412;-72
2024/01/09 10:22:57;;;;;;;5.03;2.00;;;-0.10;1.00;;;;;;5115140;28;20456;-73
2024/01/09 10:25:25;;;;;;;6.07;2.42;;;-0.30;1.00;;;;;;5114885;28;20416;-71
2024/01/09 10:27:53;;;;;;;6.68;2.20;;;-0.30;1.00;;;;;;5113649;28;20485;-71
2024/01/09 10:30:21;;;;;;;7.32;3.22;;;-0.60;1.00;;;;;;5114735;28;20749;-71
2024/01/09 10:32:53;;;;;;;3.78;1.58;;;-0.90;1.00;;;;;;5109853;28;20428;-72
2024/01/09 10:35:20;;;;;;;4.90;1.70;;;-1.20;1.00;;;;;;5110139;28;20454;-72
2024/01/09 10:37:53;;;;;;;6.65;2.40;;;-1.10;1.00;;;;;;5112215;28;20724;-72
2024/01/09 10:40:25;;;;;;;5.28;2.40;;;-1.20;1.00;;;;;;5113788;28;20683;-71
2024/01/09 10:42:53;;;;;;;4.47;1.60;;;-1.20;1.00;;;;;;5114414;28;20409;-72
2024/01/09 10:45:24;;;;;;;5.28;1.80;;;-1.00;1.00;;;;;;5112895;28;20461;-73
2024/01/09 10:47:53;;;;;;;4.75;2.20;;;-0.70;1.00;;;;;;5113155;28;20836;-73
2024/01/09 10:50:21;;;;;;;5.22;1.98;;;-0.60;1.00;;;;;;5115436;28;20427;-73
2024/01/09 10:52:48;;;;;;;5.97;2.05;;;-0.70;1.00;;;;;;5112058;28;20436;-73
2024/01/09 10:55:16;;;;;;;5.90;2.60;;;-0.70;1.00;;;;;;5111928;28;20467;-72
2024/01/09 10:57:43;;;;;;;7.70;3.03;;;-0.60;1.00;;;;;;5112510;28;20420;-72
2024/01/09 11:00:12;;;;;;;5.85;2.35;;;-0.50;1.00;;;;;;5113857;28;20416;-72
2024/01/09 11:02:40;;;;;;;7.55;2.38;;;-0.50;1.00;;;;;;5113589;28;20420;-73
2024/01/09 11:05:12;;;;;;;5.30;2.30;;;-0.40;1.00;;;;;;5111965;28;20419;-72
2024/01/09 11:07:42;;;;;;;4.10;2.17;;;-0.20;1.00;;;;;;5109274;28;20483;-71
2024/01/09 11:10:16;;;;;;;6.38;2.05;;;-0.40;1.00;;;;;;5097292;28;20437;-72
2024/01/09 11:12:46;;;;;;;6.95;1.98;;;-0.30;1.00;;;;;;5089183;28;20442;-72
2024/01/09 11:15:19;;;;;;;5.97;2.20;;;-0.30;1.00;;;;;;5090817;28;20430;-72
2024/01/09 11:17:49;;;;;;;7.18;2.45;;;-0.30;1.00;;;;;;5091917;28;20418;-72
2024/01/09 11:20:19;;;;;;;5.18;2.30;;;-0.10;1.00;;;;;;5096699;28;20681;-72
2024/01/09 11:22:46;;;;;;;6.30;2.42;;;-0.20;1.00;;;;;;5098045;28;20426;-72
2024/01/09 11:25:16;;;;;;;6.53;2.40;;;-0.10;1.00;;;;;;5097482;28;20856;-72
2024/01/09 11:27:49;;;;;;;7.32;2.40;;;-0.10;1.00;;;;;;5099614;28;20543;-72
2024/01/09 11:30:18;;;;;;;6.20;2.13;;;-0.10;1.00;;;;;;5115288;28;20829;-72
2024/01/09 11:32:47;;;;;;;6.28;2.08;;;-0.20;1.00;;;;;;5116454;28;20713;-72
2024/01/09 11:35:17;;;;;;;6.07;2.22;;;-0.10;1.00;;;;;;5114898;28;20448;-70
2024/01/09 11:37:46;;;;;;;6.13;2.22;;;0.00;1.00;;;;;;5115086;28;20428;-72
2024/01/09 11:40:15;;;;;;;6.13;1.85;;;-0.10;1.00;;;;;;5114827;28;20458;-71
2024/01/09 11:42:45;;;;;;;4.70;2.20;;;-0.20;1.00;;;;;;5115755;28;20427;-71
2024/01/09 11:45:13;;;;;;;8.07;2.28;;;-0.20;1.00;;;;;;5113708;28;20439;-72
2024/01/09 11:47:41;;;;;;;5.65;2.20;;;-0.20;1.00;;;;;;5114579;28;20678;-72
2024/01/09 11:50:09;;;;;;;5.43;2.20;;;-0.10;1.00;;;;;;5116078;28;20458;-72
2024/01/09 11:52:39;;;;;;;3.88;1.98;;;0.10;1.00;;;;;;5113209;28;20495;-72
2024/01/09 11:55:07;;;;;;;6.10;2.25;;;0.10;1.00;;;;;;5110887;28;20432;-72
2024/01/09 11:57:40;;;;;;;6.07;1.90;;;0.00;1.00;;;;;;5111269;28;20428;-72
2024/01/09 12:00:09;;;;;;;6.07;2.60;;;0.10;1.00;;;;;;5115082;28;20688;-72
2024/01/09 12:02:37;;;;;;;6.40;2.30;;;0.10;1.00;;;;;;5110650;28;20449;-71
2024/01/09 12:05:04;;;;;;;6.80;1.75;;;0.30;1.00;;;;;;5109504;28;20513;-72
2024/01/09 12:07:33;;;;;;;7.55;2.10;;;0.40;1.00;;;;;;5111864;28;20435;-71
2024/01/09 12:10:03;;;;;;;4.22;1.80;;;0.20;1.00;;;;;;5112236;28;20452;-72
2024/01/09 12:12:31;;;;;;;5.78;2.00;;;0.20;1.00;;;;;;5111038;28;20432;-72
2024/01/09 12:14:59;;;;;;;5.88;2.20;;;0.20;1.00;;;;;;5108089;28;20435;-72
2024/01/09 12:17:33;;;;;;;5.45;2.03;;;0.40;1.00;;;;;;5114547;28;20408;-72
2024/01/09 12:20:00;;;;;;;5.35;1.65;;;0.40;1.00;;;;;;5114245;28;21095;-73
2024/01/09 12:22:28;;;;;;;4.70;1.75;;;0.40;1.00;;;;;;5113299;28;20421;-72
2024/01/09 12:24:56;;;;;;;5.30;2.10;;;0.40;1.00;;;;;;5110256;28;20440;-72
2024/01/09 12:27:25;;;;;;;3.75;1.70;;;0.30;1.00;;;;;;5108442;28;21003;-72
2024/01/09 12:29:52;;;;;;;4.00;1.70;;;0.50;1.00;;;;;;5106730;28;20431;-73
2024/01/09 12:32:20;;;;;;;4.90;1.60;;;0.60;1.00;;;;;;5114892;28;20826;-72
2024/01/09 12:34:47;;;;;;;4.95;2.05;;;0.60;1.00;;;;;;5103516;27;20466;-71
2024/01/09 12:37:15;;;;;;;5.13;1.95;;;0.60;1.00;;;;;;5114575;28;20438;-72
2024/01/09 12:39:42;;;;;;;4.57;1.55;;;0.60;1.00;;;;;;5114977;28;20523;-72
2024/01/09 12:42:11;;;;;;;4.88;1.88;;;0.50;1.00;;;;;;5114951;28;20416;-73
2024/01/09 12:44:41;;;;;;;4.57;1.80;;;0.50;1.00;;;;;;5114753;28;20753;-73
2024/01/09 12:47:09;;;;;;;5.30;2.03;;;0.40;1.00;;;;;;5109947;28;20730;-72
2024/01/09 12:49:45;;;;;;;4.10;1.53;;;0.40;1.00;;;;;;5104003;28;20514;-73
2024/01/09 12:52:13;;;;;;;3.67;1.75;;;0.60;1.00;;;;;;5101992;28;20445;-73
2024/01/09 12:54:42;;;;;;;4.78;1.73;;;0.70;1.00;;;;;;5113059;28;20416;-71